createdAt,value
2022-08-07T00:02:41.204Z,26.70
2022-08-07T00:05:03.824Z,26.70
2022-08-07T00:07:40.360Z,26.80
2022-08-07T00:10:25.560Z,26.80
2022-08-07T00:12:43.619Z,26.80
2022-08-07T00:15:12.003Z,26.90
2022-08-07T00:17:44.605Z,26.90
2022-08-07T00:20:16.132Z,27.00
2022-08-07T00:22:51.741Z,27.10
2022-08-07T00:25:20.734Z,27.10
2022-08-07T00:27:56.549Z,27.10
2022-08-07T00:30:28.538Z,27.10
2022-08-07T00:33:01.293Z,27.10
2022-08-07T00:35:34.043Z,27.20
2022-08-07T00:38:06.505Z,27.20
2022-08-07T00:40:42.773Z,27.30
2022-08-07T00:44:00.446Z,27.30
2022-08-07T00:45:50.394Z,27.30
2022-08-07T00:48:24.898Z,27.40
2022-08-07T00:50:54.338Z,27.40
2022-08-07T00:53:39.426Z,27.50
2022-08-07T00:56:02.723Z,27.50
2022-08-07T00:58:34.653Z,27.50
2022-08-07T01:01:07.175Z,27.50
2022-08-07T01:03:55.572Z,27.60
2022-08-07T01:06:15.765Z,27.60
2022-08-07T01:08:53.328Z,27.60
2022-08-07T01:12:04.862Z,27.70
2022-08-07T01:13:56.634Z,27.80
2022-08-07T01:16:30.349Z,27.80
2022-08-07T01:19:02.762Z,27.80
2022-08-07T01:21:37.526Z,27.90
2022-08-07T01:24:13.774Z,27.90
2022-08-07T01:26:51.640Z,28.00
2022-08-07T01:29:22.033Z,28.00
2022-08-07T01:31:54.339Z,28.00
2022-08-07T01:34:30.663Z,28.10
2022-08-07T01:36:58.414Z,28.10
2022-08-07T01:39:41.444Z,28.10
2022-08-07T01:42:37.087Z,28.20
2022-08-07T01:44:35.610Z,28.20
2022-08-07T01:48:18.034Z,28.20
2022-08-07T01:49:39.847Z,28.20
2022-08-07T01:52:12.092Z,28.20
2022-08-07T01:54:46.467Z,28.20
2022-08-07T01:57:24.150Z,28.30
2022-08-07T01:59:54.586Z,28.30
2022-08-07T02:03:11.477Z,28.40
2022-08-07T02:05:04.667Z,28.50
2022-08-07T02:07:50.140Z,28.60
2022-08-07T02:10:14.404Z,28.60
2022-08-07T02:12:50.298Z,28.70
2022-08-07T02:15:21.434Z,28.70
2022-08-07T02:17:55.381Z,28.80
2022-08-07T02:20:28.441Z,28.90
2022-08-07T02:23:02.875Z,29.00
2022-08-07T02:26:31.438Z,29.10
2022-08-07T02:28:11.329Z,29.20
2022-08-07T02:30:43.683Z,29.20
2022-08-07T02:33:15.924Z,29.20
2022-08-07T02:36:26.981Z,29.20
2022-08-07T02:38:28.241Z,29.20
2022-08-07T02:41:00.694Z,29.40
2022-08-07T02:43:32.678Z,29.40
2022-08-07T02:46:06.285Z,29.50
2022-08-07T02:48:37.220Z,29.70
2022-08-07T02:51:14.191Z,29.80
2022-08-07T02:53:47.222Z,29.80
2022-08-07T02:56:21.779Z,29.80
2022-08-07T02:58:55.334Z,29.80
2022-08-07T03:01:35.398Z,29.80
2022-08-07T03:04:03.522Z,29.80
2022-08-07T03:06:35.525Z,29.90
2022-08-07T03:09:43.757Z,30.00
2022-08-07T03:11:51.896Z,30.10
2022-08-07T03:14:22.441Z,30.10
2022-08-07T03:16:54.004Z,30.10
2022-08-07T03:19:28.957Z,30.10
2022-08-07T03:21:59.385Z,30.10
2022-08-07T03:24:31.021Z,30.10
2022-08-07T03:27:05.159Z,30.10
2022-08-07T03:29:46.286Z,30.00
2022-08-07T03:32:14.515Z,30.10
2022-08-07T03:35:00.819Z,30.10
2022-08-07T03:37:21.598Z,30.00
2022-08-07T03:40:07.327Z,30.00
2022-08-07T03:42:27.759Z,29.90
2022-08-07T03:44:59.197Z,29.90
2022-08-07T03:47:45.068Z,29.90
2022-08-07T03:50:06.791Z,29.90
2022-08-07T03:52:40.803Z,29.80
2022-08-07T03:55:12.036Z,29.90
2022-08-07T03:58:34.611Z,29.90
2022-08-07T04:00:17.750Z,29.90
2022-08-07T04:02:50.478Z,29.90
2022-08-07T04:05:39.213Z,29.90
2022-08-07T04:07:57.030Z,29.90
2022-08-07T04:10:29.487Z,29.80
2022-08-07T04:13:00.725Z,29.80
2022-08-07T04:15:32.994Z,29.90
2022-08-07T04:18:56.560Z,29.90
2022-08-07T04:20:37.888Z,29.80
2022-08-07T04:23:19.319Z,29.80
2022-08-07T04:25:47.816Z,29.80
2022-08-07T04:28:21.837Z,29.80
2022-08-07T04:30:56.902Z,29.80
2022-08-07T04:33:27.588Z,29.80
2022-08-07T04:35:59.038Z,29.90
2022-08-07T04:38:30.140Z,30.00
2022-08-07T04:41:01.152Z,30.20
2022-08-07T04:44:12.138Z,30.20
2022-08-07T04:46:12.460Z,30.30
2022-08-07T04:48:50.836Z,30.50
2022-08-07T04:51:27.225Z,30.50
2022-08-07T04:54:01.676Z,30.50
2022-08-07T04:58:07.420Z,30.50
2022-08-07T04:59:18.240Z,30.50
2022-08-07T05:01:42.430Z,30.50
2022-08-07T05:04:18.030Z,30.60
2022-08-07T05:06:53.074Z,30.60
2022-08-07T05:09:27.965Z,30.70
2022-08-07T05:12:02.591Z,30.70
2022-08-07T05:14:56.348Z,30.70
2022-08-07T05:17:52.658Z,30.60
2022-08-07T05:19:53.613Z,30.60
2022-08-07T05:25:54.444Z,30.40
2022-08-07T05:28:15.756Z,30.30
2022-08-07T05:30:35.435Z,30.20
2022-08-07T05:33:08.608Z,30.20
2022-08-07T05:35:42.563Z,30.10
2022-08-07T05:39:01.499Z,30.00
2022-08-07T05:40:51.334Z,30.00
2022-08-07T05:43:43.433Z,29.90
2022-08-07T05:45:56.604Z,30.00
2022-08-07T05:48:27.901Z,30.00
2022-08-07T05:51:03.315Z,30.10
2022-08-07T05:54:12.867Z,30.10
2022-08-07T05:56:08.291Z,30.10
2022-08-07T05:58:41.015Z,30.10
2022-08-07T06:01:15.142Z,30.10
2022-08-07T06:03:56.940Z,30.10
2022-08-07T06:06:22.528Z,30.20
2022-08-07T06:08:56.524Z,30.20
2022-08-07T06:11:29.094Z,30.30
2022-08-07T06:14:11.884Z,30.30
2022-08-07T06:16:35.651Z,30.40
2022-08-07T06:19:07.530Z,30.50
2022-08-07T06:22:14.391Z,30.60
2022-08-07T06:24:38.180Z,30.60
2022-08-07T06:26:48.985Z,30.60
2022-08-07T06:29:24.002Z,30.60
2022-08-07T06:31:55.710Z,30.50
2022-08-07T06:34:29.747Z,30.60
2022-08-07T06:37:02.597Z,30.50
2022-08-07T06:40:17.843Z,30.60
2022-08-07T06:42:07.748Z,30.60
2022-08-07T06:44:43.754Z,30.60
2022-08-07T06:47:15.606Z,30.60
2022-08-07T06:49:51.658Z,30.60
2022-08-07T06:52:31.839Z,30.60
2022-08-07T06:55:34.547Z,30.60
2022-08-07T06:57:39.618Z,30.60
2022-08-07T07:00:12.029Z,30.60
2022-08-07T07:02:49.168Z,30.60
2022-08-07T07:05:12.732Z,30.60
2022-08-07T07:07:59.520Z,30.60
2022-08-07T07:10:16.038Z,30.60
2022-08-07T07:12:53.402Z,30.60
2022-08-07T07:15:26.414Z,30.60
2022-08-07T07:17:58.565Z,30.60
2022-08-07T07:20:32.004Z,30.60
2022-08-07T07:24:09.519Z,30.60
2022-08-07T07:26:35.523Z,30.60
2022-08-07T07:28:42.184Z,30.50
2022-08-07T07:30:48.723Z,30.40
2022-08-07T07:33:22.611Z,30.20
2022-08-07T07:36:55.340Z,30.00
2022-08-07T07:39:11.789Z,29.90
2022-08-07T07:41:50.797Z,29.70
2022-08-07T07:44:32.971Z,29.50
2022-08-07T07:47:14.186Z,29.50
2022-08-07T07:50:29.656Z,29.40
2022-08-07T07:52:15.840Z,29.20
2022-08-07T07:54:51.016Z,29.20
2022-08-07T07:57:50.230Z,29.10
2022-08-07T07:59:57.571Z,29.10
2022-08-07T08:02:35.892Z,29.10
2022-08-07T08:05:15.013Z,29.10
2022-08-07T08:07:59.742Z,29.10
2022-08-07T08:10:35.487Z,29.10
2022-08-07T08:13:02.989Z,29.20
2022-08-07T08:15:58.118Z,29.20
2022-08-07T08:18:17.551Z,29.30
2022-08-07T08:20:50.172Z,29.30
2022-08-07T08:23:29.658Z,29.30
2022-08-07T08:26:08.341Z,29.30
2022-08-07T08:28:45.289Z,29.30
2022-08-07T08:31:22.947Z,29.40
2022-08-07T08:33:55.706Z,29.40
2022-08-07T08:36:30.487Z,29.50
2022-08-07T08:39:05.311Z,29.50
2022-08-07T08:41:57.522Z,29.50
2022-08-07T08:44:19.830Z,29.50
2022-08-07T08:46:53.828Z,29.60
2022-08-07T08:49:46.682Z,29.60
2022-08-07T08:52:13.993Z,29.60
2022-08-07T08:54:39.046Z,29.60
2022-08-07T08:57:13.444Z,29.60
2022-08-07T08:59:51.081Z,29.60
2022-08-07T09:02:36.697Z,29.60
2022-08-07T09:04:59.695Z,29.50
2022-08-07T09:07:46.129Z,29.50
2022-08-07T09:10:09.123Z,29.50
2022-08-07T09:12:53.723Z,29.60
2022-08-07T09:16:21.761Z,29.60
2022-08-07T09:17:58.879Z,29.60
2022-08-07T09:20:35.162Z,29.60
2022-08-07T09:24:30.717Z,29.70
2022-08-07T09:25:39.976Z,29.60
2022-08-07T09:30:06.179Z,29.60
2022-08-07T09:30:47.625Z,29.60
2022-08-07T09:33:41.153Z,29.60
2022-08-07T09:36:04.083Z,29.60
2022-08-07T09:38:34.983Z,29.60
2022-08-07T09:41:09.233Z,29.50
2022-08-07T09:44:05.981Z,29.30
2022-08-07T09:47:42.629Z,29.20
2022-08-07T09:50:00.664Z,29.10
2022-08-07T09:52:10.008Z,29.00
2022-08-07T09:54:16.445Z,28.90
2022-08-07T09:56:46.366Z,28.80
2022-08-07T09:59:22.058Z,28.70
2022-08-07T10:01:54.312Z,28.70
2022-08-07T10:04:28.289Z,28.60
2022-08-07T10:07:02.090Z,28.60
2022-08-07T10:09:59.329Z,28.60
2022-08-07T10:12:21.514Z,28.50
2022-08-07T10:14:55.181Z,28.40
2022-08-07T10:17:21.041Z,28.40
2022-08-07T10:19:55.315Z,28.40
2022-08-07T10:22:33.526Z,28.30
2022-08-07T10:25:06.328Z,28.30
2022-08-07T10:27:46.266Z,28.30
2022-08-07T10:30:14.568Z,28.30
2022-08-07T10:32:53.532Z,28.20
2022-08-07T10:35:25.563Z,28.20
2022-08-07T10:38:21.293Z,28.20
2022-08-07T10:40:40.212Z,28.20
2022-08-07T10:43:11.224Z,28.10
2022-08-07T10:45:57.536Z,28.10
2022-08-07T10:48:23.047Z,28.10
2022-08-07T10:51:00.233Z,28.10
2022-08-07T10:53:41.797Z,28.10
2022-08-07T10:56:20.794Z,28.10
2022-08-07T10:58:59.874Z,28.00
2022-08-07T11:01:35.808Z,28.00
2022-08-07T11:04:16.690Z,28.00
2022-08-07T11:06:34.452Z,28.00
2022-08-07T11:09:12.875Z,27.90
2022-08-07T11:11:51.796Z,27.90
2022-08-07T11:14:45.310Z,27.90
2022-08-07T11:17:07.130Z,27.90
2022-08-07T11:19:36.718Z,27.90
2022-08-07T11:22:11.271Z,27.90
2022-08-07T11:24:45.563Z,27.90
2022-08-07T11:27:17.833Z,27.90
2022-08-07T11:30:10.108Z,27.90
2022-08-07T11:32:26.429Z,27.90
2022-08-07T11:35:04.644Z,27.90
2022-08-07T11:37:58.088Z,27.90
2022-08-07T11:40:22.721Z,27.90
2022-08-07T11:43:01.747Z,27.90
2022-08-07T11:45:35.913Z,27.90
2022-08-07T11:48:13.786Z,27.90
2022-08-07T11:50:57.846Z,27.90
2022-08-07T11:53:26.064Z,27.90
2022-08-07T11:56:25.167Z,27.90
2022-08-07T11:58:42.476Z,27.90
2022-08-07T12:01:20.412Z,27.90
2022-08-07T12:03:53.545Z,27.90
2022-08-07T12:06:37.461Z,27.90
2022-08-07T12:09:00.319Z,27.90
2022-08-07T12:12:09.242Z,27.90
2022-08-07T12:14:22.043Z,27.90
2022-08-07T12:17:04.245Z,27.80
2022-08-07T12:20:05.349Z,27.80
2022-08-07T12:22:37.474Z,27.90
2022-08-07T12:24:52.442Z,27.90
2022-08-07T12:27:28.090Z,27.90
2022-08-07T12:30:02.155Z,27.90
2022-08-07T12:32:35.535Z,27.90
2022-08-07T12:35:09.256Z,27.90
2022-08-07T12:38:10.602Z,27.90
2022-08-07T12:40:46.779Z,27.90
2022-08-07T12:42:58.050Z,27.90
2022-08-07T12:45:31.388Z,27.90
2022-08-07T12:48:13.184Z,27.80
2022-08-07T12:50:49.267Z,27.80
2022-08-07T12:53:18.032Z,27.80
2022-08-07T12:56:02.086Z,27.80
2022-08-07T12:58:28.144Z,27.80
2022-08-07T13:00:59.540Z,27.80
2022-08-07T13:03:59.124Z,27.70
2022-08-07T13:06:21.581Z,27.70
2022-08-07T13:08:43.486Z,27.80
2022-08-07T13:11:18.133Z,27.80
2022-08-07T13:13:57.321Z,27.70
2022-08-07T13:16:33.155Z,27.70
2022-08-07T13:19:18.139Z,27.70
2022-08-07T13:21:57.402Z,27.70
2022-08-07T13:24:17.065Z,27.70
2022-08-07T13:26:56.298Z,27.70
2022-08-07T13:29:42.450Z,27.70
2022-08-07T13:32:32.704Z,27.70
2022-08-07T13:34:52.372Z,27.70
2022-08-07T13:37:27.677Z,27.70
2022-08-07T13:40:35.529Z,27.80
2022-08-07T13:42:39.664Z,27.70
2022-08-07T13:46:07.879Z,27.80
2022-08-07T13:48:06.985Z,27.70
2022-08-07T13:50:34.507Z,27.70
2022-08-07T13:52:58.765Z,27.80
2022-08-07T13:55:36.898Z,27.80
2022-08-07T13:58:06.945Z,27.80
2022-08-07T14:00:54.087Z,27.80
2022-08-07T14:03:30.062Z,27.80
2022-08-07T14:06:06.520Z,27.80
2022-08-07T14:08:35.246Z,27.80
2022-08-07T14:11:15.266Z,27.80
2022-08-07T14:13:45.668Z,27.80
2022-08-07T14:16:22.375Z,27.80
2022-08-07T14:18:57.266Z,27.80
2022-08-07T14:22:02.919Z,27.70
2022-08-07T14:24:04.154Z,27.70
2022-08-07T14:26:39.215Z,27.80
2022-08-07T14:30:07.579Z,27.80
2022-08-07T14:31:56.084Z,27.80
2022-08-07T14:34:27.224Z,27.70
2022-08-07T14:36:56.425Z,27.80
2022-08-07T14:40:15.759Z,27.70
2022-08-07T14:42:18.811Z,27.70
2022-08-07T14:44:37.830Z,27.60
2022-08-07T14:47:14.632Z,27.60
2022-08-07T14:49:57.056Z,27.50
2022-08-07T14:52:16.985Z,27.50
2022-08-07T14:54:49.211Z,27.50
2022-08-07T14:57:23.111Z,27.40
2022-08-07T15:00:03.697Z,27.40
2022-08-07T15:02:32.936Z,27.40
2022-08-07T15:05:02.621Z,27.50
2022-08-07T15:07:51.278Z,27.40
2022-08-07T15:12:45.119Z,27.40
2022-08-07T15:15:22.549Z,27.40
2022-08-07T15:17:58.075Z,27.40
2022-08-07T15:23:17.044Z,27.40
2022-08-07T15:25:38.080Z,27.40
2022-08-07T15:28:32.077Z,27.30
2022-08-07T15:31:05.328Z,27.30
2022-08-07T15:33:20.920Z,27.30
2022-08-07T15:36:01.387Z,27.30
2022-08-07T15:38:30.794Z,27.30
2022-08-07T15:41:23.696Z,27.20
2022-08-07T15:43:55.978Z,27.30
2022-08-07T15:49:11.964Z,27.30
2022-08-07T15:51:54.138Z,27.20
2022-08-07T15:53:59.633Z,27.20
2022-08-07T15:56:34.419Z,27.20
2022-08-07T15:59:16.264Z,27.20
2022-08-07T16:01:45.353Z,27.20
2022-08-07T16:04:19.437Z,27.20
2022-08-07T16:06:51.669Z,27.30
2022-08-07T16:09:23.349Z,27.30
2022-08-07T16:12:00.946Z,27.30
2022-08-07T16:14:36.285Z,27.40
2022-08-07T16:17:14.948Z,27.40
2022-08-07T16:19:59.298Z,27.40
2022-08-07T16:22:34.010Z,27.40
2022-08-07T16:24:55.130Z,27.40
2022-08-07T16:27:40.343Z,27.40
2022-08-07T16:30:29.408Z,27.40
2022-08-07T16:32:54.565Z,27.40
2022-08-07T16:35:51.858Z,27.40
2022-08-07T16:38:03.754Z,27.40
2022-08-07T16:40:32.174Z,27.40
2022-08-07T16:43:04.541Z,27.40
2022-08-07T16:46:33.140Z,27.40
2022-08-07T16:48:13.550Z,27.40
2022-08-07T16:51:21.878Z,27.40
2022-08-07T16:54:01.769Z,27.40
2022-08-07T16:56:00.231Z,27.40
2022-08-07T16:59:11.077Z,27.40
2022-08-07T17:01:15.574Z,27.40
2022-08-07T17:04:00.023Z,27.40
2022-08-07T17:06:34.289Z,27.40
2022-08-07T17:09:10.842Z,27.40
2022-08-07T17:12:04.578Z,27.40
2022-08-07T17:14:17.943Z,27.30
2022-08-07T17:16:56.103Z,27.30
2022-08-07T17:19:18.719Z,27.30
2022-08-07T17:21:55.611Z,27.30
2022-08-07T17:24:30.727Z,27.30
2022-08-07T17:27:02.522Z,27.30
2022-08-07T17:30:14.822Z,27.30
2022-08-07T17:32:30.675Z,27.20
2022-08-07T17:35:30.812Z,27.20
2022-08-07T17:38:06.093Z,27.30
2022-08-07T17:40:10.856Z,27.20
2022-08-07T17:42:58.244Z,27.20
2022-08-07T17:45:19.189Z,27.20
2022-08-07T17:47:55.909Z,27.20
2022-08-07T17:50:30.777Z,27.10
2022-08-07T17:53:06.043Z,27.10
2022-08-07T17:55:55.739Z,27.10
2022-08-07T17:58:30.164Z,27.00
2022-08-07T18:00:50.031Z,27.10
2022-08-07T18:03:25.561Z,27.00
2022-08-07T18:06:02.233Z,27.10
2022-08-07T18:08:45.335Z,27.00
2022-08-07T18:12:07.762Z,27.10
2022-08-07T18:13:54.745Z,27.00
2022-08-07T18:16:34.702Z,27.00
2022-08-07T18:21:11.034Z,27.00
2022-08-07T18:22:00.561Z,27.00
2022-08-07T18:24:33.655Z,27.00
2022-08-07T18:26:57.079Z,27.00
2022-08-07T18:30:07.039Z,27.00
2022-08-07T18:32:07.716Z,27.00
2022-08-07T18:35:01.104Z,27.00
2022-08-07T18:38:58.086Z,27.00
2022-08-07T18:40:07.919Z,27.00
2022-08-07T18:42:34.295Z,27.00
2022-08-07T18:45:44.659Z,27.10
2022-08-07T18:47:45.471Z,27.00
2022-08-07T18:50:38.787Z,27.00
2022-08-07T18:53:01.451Z,27.00
2022-08-07T18:55:41.632Z,27.00
2022-08-07T18:58:14.329Z,27.00
2022-08-07T19:00:44.310Z,27.00
2022-08-07T19:03:35.539Z,27.00
2022-08-07T19:06:03.718Z,26.90
2022-08-07T19:08:31.134Z,26.90
2022-08-07T19:11:15.469Z,26.80
2022-08-07T19:13:40.480Z,26.80
2022-08-07T19:17:01.405Z,26.80
2022-08-07T19:18:50.227Z,26.70
2022-08-07T19:21:47.817Z,26.70
2022-08-07T19:24:00.390Z,26.60
2022-08-07T19:26:55.437Z,26.60
2022-08-07T19:30:56.672Z,26.60
2022-08-07T19:32:08.034Z,26.50
2022-08-07T19:34:33.947Z,26.50
2022-08-07T19:37:09.816Z,26.50
2022-08-07T19:39:40.819Z,26.50
2022-08-07T19:42:22.372Z,26.40
2022-08-07T19:44:41.321Z,26.40
2022-08-07T19:47:27.200Z,26.40
2022-08-07T19:49:57.097Z,26.30
2022-08-07T19:52:29.445Z,26.40
2022-08-07T19:55:03.106Z,26.40
2022-08-07T19:58:01.299Z,26.30
2022-08-07T20:00:09.044Z,26.30
2022-08-07T20:02:52.023Z,26.30
2022-08-07T20:05:21.346Z,26.30
2022-08-07T20:07:56.182Z,26.30
2022-08-07T20:10:36.282Z,26.30
2022-08-07T20:13:06.186Z,26.30
2022-08-07T20:15:39.421Z,26.30
2022-08-07T20:18:14.702Z,26.30
2022-08-07T20:20:46.283Z,26.30
2022-08-07T20:23:32.700Z,26.30
2022-08-07T20:25:57.654Z,26.30
2022-08-07T20:28:31.630Z,26.20
2022-08-07T20:31:03.389Z,26.10
2022-08-07T20:33:38.307Z,26.10
2022-08-07T20:36:10.938Z,26.10
2022-08-07T20:38:59.569Z,26.10
2022-08-07T20:41:19.251Z,26.00
2022-08-07T20:43:52.812Z,25.90
2022-08-07T20:46:32.366Z,25.70
2022-08-07T20:49:58.480Z,25.60
2022-08-07T20:51:40.282Z,25.50
2022-08-07T20:54:15.207Z,25.40
2022-08-07T20:56:48.234Z,25.30
2022-08-07T21:00:05.615Z,25.10
2022-08-07T21:01:55.119Z,24.90
2022-08-07T21:04:29.715Z,24.70
2022-08-07T21:07:14.667Z,24.60
2022-08-07T21:09:52.436Z,24.40
2022-08-07T21:12:15.295Z,24.30
2022-08-07T21:14:48.392Z,24.20
2022-08-07T21:18:02.818Z,24.10
2022-08-07T21:20:05.070Z,24.00
2022-08-07T21:22:28.490Z,24.00
2022-08-07T21:25:04.806Z,24.00
2022-08-07T21:27:39.865Z,24.00
2022-08-07T21:30:12.686Z,24.00
2022-08-07T21:32:52.241Z,24.00
2022-08-07T21:35:34.989Z,23.90
2022-08-07T21:37:59.596Z,23.90
2022-08-07T21:40:35.628Z,24.00
2022-08-07T21:43:05.777Z,24.00
2022-08-07T21:46:05.398Z,24.00
2022-08-07T21:48:27.883Z,24.00
2022-08-07T21:50:49.479Z,24.00
2022-08-07T21:53:24.030Z,24.00
2022-08-07T21:55:57.227Z,24.00
2022-08-07T21:58:32.915Z,24.00
2022-08-07T22:01:05.687Z,24.10
2022-08-07T22:03:40.300Z,24.10
2022-08-07T22:06:30.873Z,24.10
2022-08-07T22:08:49.397Z,24.00
